sensor_id;sensor_type;location;lat;lon;timestamp;temperature;humidity
68867;SHT30;56451;44.804;20.476;2022-07-29T00:02:15;27.60;49.71
68867;SHT30;56451;44.804;20.476;2022-07-29T00:04:40;27.62;50.20
68867;SHT30;56451;44.804;20.476;2022-07-29T00:07:06;27.52;50.71
68867;SHT30;56451;44.804;20.476;2022-07-29T00:09:32;27.47;50.84
68867;SHT30;56451;44.804;20.476;2022-07-29T00:12:00;27.39;50.99
68867;SHT30;56451;44.804;20.476;2022-07-29T00:14:26;27.39;50.86
68867;SHT30;56451;44.804;20.476;2022-07-29T00:16:52;27.38;51.04
68867;SHT30;56451;44.804;20.476;2022-07-29T00:19:18;27.35;51.11
68867;SHT30;56451;44.804;20.476;2022-07-29T00:21:44;27.32;51.05
68867;SHT30;56451;44.804;20.476;2022-07-29T00:24:10;27.32;51.09
68867;SHT30;56451;44.804;20.476;2022-07-29T00:26:35;27.32;50.92
68867;SHT30;56451;44.804;20.476;2022-07-29T00:29:03;27.34;50.95
68867;SHT30;56451;44.804;20.476;2022-07-29T00:31:29;27.31;50.76
68867;SHT30;56451;44.804;20.476;2022-07-29T00:33:55;27.32;50.37
68867;SHT30;56451;44.804;20.476;2022-07-29T00:36:21;27.31;49.98
68867;SHT30;56451;44.804;20.476;2022-07-29T00:38:48;27.29;49.94
68867;SHT30;56451;44.804;20.476;2022-07-29T00:41:15;27.28;49.82
68867;SHT30;56451;44.804;20.476;2022-07-29T00:43:41;27.25;49.76
68867;SHT30;56451;44.804;20.476;2022-07-29T00:46:07;27.21;50.00
68867;SHT30;56451;44.804;20.476;2022-07-29T00:48:33;27.22;49.92
68867;SHT30;56451;44.804;20.476;2022-07-29T00:51:01;27.18;49.99
68867;SHT30;56451;44.804;20.476;2022-07-29T00:53:27;27.15;50.29
68867;SHT30;56451;44.804;20.476;2022-07-29T00:55:56;27.14;50.93
68867;SHT30;56451;44.804;20.476;2022-07-29T00:58:23;27.11;51.77
68867;SHT30;56451;44.804;20.476;2022-07-29T01:00:49;27.09;52.18
68867;SHT30;56451;44.804;20.476;2022-07-29T01:03:16;27.09;52.52
68867;SHT30;56451;44.804;20.476;2022-07-29T01:05:43;27.07;52.83
68867;SHT30;56451;44.804;20.476;2022-07-29T01:08:12;27.02;53.10
68867;SHT30;56451;44.804;20.476;2022-07-29T01:10:41;27.02;53.22
68867;SHT30;56451;44.804;20.476;2022-07-29T01:13:08;27.01;53.22
68867;SHT30;56451;44.804;20.476;2022-07-29T01:15:56;26.98;53.37
68867;SHT30;56451;44.804;20.476;2022-07-29T01:18:30;26.98;53.69
68867;SHT30;56451;44.804;20.476;2022-07-29T01:21:15;26.95;53.88
68867;SHT30;56451;44.804;20.476;2022-07-29T01:26:53;26.99;53.88
68867;SHT30;56451;44.804;20.476;2022-07-29T01:32:02;26.95;54.22
68867;SHT30;56451;44.804;20.476;2022-07-29T01:35:35;26.95;54.23
68867;SHT30;56451;44.804;20.476;2022-07-29T01:37:45;26.92;54.16
68867;SHT30;56451;44.804;20.476;2022-07-29T01:40:36;26.90;54.19
68867;SHT30;56451;44.804;20.476;2022-07-29T01:43:13;26.92;54.00
68867;SHT30;56451;44.804;20.476;2022-07-29T01:45:45;26.88;53.99
68867;SHT30;56451;44.804;20.476;2022-07-29T01:50:47;26.84;53.91
68867;SHT30;56451;44.804;20.476;2022-07-29T01:53:20;26.84;53.83
68867;SHT30;56451;44.804;20.476;2022-07-29T01:55:48;26.84;53.70
68867;SHT30;56451;44.804;20.476;2022-07-29T01:58:14;26.90;53.67
68867;SHT30;56451;44.804;20.476;2022-07-29T02:00:41;26.91;53.54
68867;SHT30;56451;44.804;20.476;2022-07-29T02:03:10;26.95;53.52
68867;SHT30;56451;44.804;20.476;2022-07-29T02:05:39;26.92;53.42
68867;SHT30;56451;44.804;20.476;2022-07-29T02:08:06;26.92;53.42
68867;SHT30;56451;44.804;20.476;2022-07-29T02:10:34;26.91;53.77
68867;SHT30;56451;44.804;20.476;2022-07-29T02:13:02;26.92;53.61
68867;SHT30;56451;44.804;20.476;2022-07-29T02:15:30;26.90;53.57
68867;SHT30;56451;44.804;20.476;2022-07-29T02:18:07;26.90;53.56
68867;SHT30;56451;44.804;20.476;2022-07-29T02:20:34;26.88;53.70
68867;SHT30;56451;44.804;20.476;2022-07-29T02:23:01;26.88;53.67
68867;SHT30;56451;44.804;20.476;2022-07-29T02:25:28;26.91;53.66
68867;SHT30;56451;44.804;20.476;2022-07-29T02:27:55;26.87;53.63
68867;SHT30;56451;44.804;20.476;2022-07-29T02:30:23;26.87;53.70
68867;SHT30;56451;44.804;20.476;2022-07-29T02:32:50;26.87;53.63
68867;SHT30;56451;44.804;20.476;2022-07-29T02:35:18;26.86;53.64
68867;SHT30;56451;44.804;20.476;2022-07-29T02:37:45;26.88;53.43
68867;SHT30;56451;44.804;20.476;2022-07-29T02:40:34;26.91;53.23
68867;SHT30;56451;44.804;20.476;2022-07-29T02:43:03;26.90;53.10
68867;SHT30;56451;44.804;20.476;2022-07-29T02:45:29;26.90;53.13
68867;SHT30;56451;44.804;20.476;2022-07-29T02:47:57;26.87;53.25
68867;SHT30;56451;44.804;20.476;2022-07-29T02:50:33;26.86;53.25
68867;SHT30;56451;44.804;20.476;2022-07-29T02:53:12;26.90;53.17
68867;SHT30;56451;44.804;20.476;2022-07-29T02:55:56;26.88;53.16
68867;SHT30;56451;44.804;20.476;2022-07-29T02:58:42;26.86;53.27
68867;SHT30;56451;44.804;20.476;2022-07-29T03:01:16;26.84;53.15
68867;SHT30;56451;44.804;20.476;2022-07-29T03:03:44;26.84;53.27
68867;SHT30;56451;44.804;20.476;2022-07-29T03:06:12;26.83;53.20
68867;SHT30;56451;44.804;20.476;2022-07-29T03:08:39;26.81;53.22
68867;SHT30;56451;44.804;20.476;2022-07-29T03:11:07;26.80;53.37
68867;SHT30;56451;44.804;20.476;2022-07-29T03:13:34;26.83;53.17
68867;SHT30;56451;44.804;20.476;2022-07-29T03:16:01;26.77;53.37
68867;SHT30;56451;44.804;20.476;2022-07-29T03:18:27;26.83;53.41
68867;SHT30;56451;44.804;20.476;2022-07-29T03:20:52;26.80;53.39
68867;SHT30;56451;44.804;20.476;2022-07-29T03:23:22;26.81;53.35
68867;SHT30;56451;44.804;20.476;2022-07-29T03:25:50;26.83;53.33
68867;SHT30;56451;44.804;20.476;2022-07-29T03:28:16;26.86;53.34
68867;SHT30;56451;44.804;20.476;2022-07-29T03:30:41;26.86;53.27
68867;SHT30;56451;44.804;20.476;2022-07-29T03:33:07;26.86;53.24
68867;SHT30;56451;44.804;20.476;2022-07-29T03:35:33;26.84;53.17
68867;SHT30;56451;44.804;20.476;2022-07-29T03:37:59;26.86;53.14
68867;SHT30;56451;44.804;20.476;2022-07-29T03:40:35;26.83;53.27
68867;SHT30;56451;44.804;20.476;2022-07-29T03:43:03;26.81;53.38
68867;SHT30;56451;44.804;20.476;2022-07-29T03:45:31;26.80;53.46
68867;SHT30;56451;44.804;20.476;2022-07-29T03:48:01;26.77;53.36
68867;SHT30;56451;44.804;20.476;2022-07-29T03:50:29;26.76;53.66
68867;SHT30;56451;44.804;20.476;2022-07-29T03:52:56;26.74;53.60
68867;SHT30;56451;44.804;20.476;2022-07-29T03:55:22;26.73;53.74
68867;SHT30;56451;44.804;20.476;2022-07-29T03:57:49;26.76;53.70
68867;SHT30;56451;44.804;20.476;2022-07-29T04:00:16;26.74;53.56
68867;SHT30;56451;44.804;20.476;2022-07-29T04:02:43;26.74;53.63
68867;SHT30;56451;44.804;20.476;2022-07-29T04:05:14;26.74;53.62
68867;SHT30;56451;44.804;20.476;2022-07-29T04:07:43;26.74;53.55
68867;SHT30;56451;44.804;20.476;2022-07-29T04:10:10;26.74;53.56
68867;SHT30;56451;44.804;20.476;2022-07-29T04:12:36;26.70;53.66
68867;SHT30;56451;44.804;20.476;2022-07-29T04:15:05;26.67;53.70
68867;SHT30;56451;44.804;20.476;2022-07-29T04:17:31;26.67;53.75
68867;SHT30;56451;44.804;20.476;2022-07-29T04:19:56;26.70;53.75
68867;SHT30;56451;44.804;20.476;2022-07-29T04:22:22;26.69;53.77
68867;SHT30;56451;44.804;20.476;2022-07-29T04:24:48;26.71;53.81
68867;SHT30;56451;44.804;20.476;2022-07-29T04:27:14;26.73;53.76
68867;SHT30;56451;44.804;20.476;2022-07-29T04:29:39;26.78;53.66
68867;SHT30;56451;44.804;20.476;2022-07-29T04:32:06;26.77;53.70
68867;SHT30;56451;44.804;20.476;2022-07-29T04:34:31;26.76;53.80
68867;SHT30;56451;44.804;20.476;2022-07-29T04:36:57;26.74;53.83
68867;SHT30;56451;44.804;20.476;2022-07-29T04:39:23;26.83;53.62
68867;SHT30;56451;44.804;20.476;2022-07-29T04:41:50;26.80;53.48
68867;SHT30;56451;44.804;20.476;2022-07-29T04:44:15;26.84;53.50
68867;SHT30;56451;44.804;20.476;2022-07-29T04:46:41;26.83;53.28
68867;SHT30;56451;44.804;20.476;2022-07-29T04:49:07;26.84;53.28
68867;SHT30;56451;44.804;20.476;2022-07-29T04:51:34;26.86;53.46
68867;SHT30;56451;44.804;20.476;2022-07-29T04:54:00;26.87;53.35
68867;SHT30;56451;44.804;20.476;2022-07-29T04:56:26;26.87;53.15
68867;SHT30;56451;44.804;20.476;2022-07-29T04:58:52;26.88;53.12
68867;SHT30;56451;44.804;20.476;2022-07-29T05:01:19;26.86;53.29
68867;SHT30;56451;44.804;20.476;2022-07-29T05:03:45;26.87;53.32
68867;SHT30;56451;44.804;20.476;2022-07-29T05:06:11;26.87;53.28
68867;SHT30;56451;44.804;20.476;2022-07-29T05:08:37;26.92;53.17
68867;SHT30;56451;44.804;20.476;2022-07-29T05:11:03;26.90;53.20
68867;SHT30;56451;44.804;20.476;2022-07-29T05:13:29;26.91;53.17
68867;SHT30;56451;44.804;20.476;2022-07-29T05:15:55;26.92;53.19
68867;SHT30;56451;44.804;20.476;2022-07-29T05:18:24;26.95;53.17
68867;SHT30;56451;44.804;20.476;2022-07-29T05:20:50;26.94;53.24
68867;SHT30;56451;44.804;20.476;2022-07-29T05:23:17;26.92;53.07
68867;SHT30;56451;44.804;20.476;2022-07-29T05:25:43;26.92;53.28
68867;SHT30;56451;44.804;20.476;2022-07-29T05:28:08;26.91;53.32
68867;SHT30;56451;44.804;20.476;2022-07-29T05:30:34;26.92;53.24
68867;SHT30;56451;44.804;20.476;2022-07-29T05:33:00;26.97;53.25
68867;SHT30;56451;44.804;20.476;2022-07-29T05:35:26;26.99;53.18
68867;SHT30;56451;44.804;20.476;2022-07-29T05:37:52;27.01;53.17
68867;SHT30;56451;44.804;20.476;2022-07-29T05:40:18;27.02;53.23
68867;SHT30;56451;44.804;20.476;2022-07-29T05:42:43;27.08;53.05
68867;SHT30;56451;44.804;20.476;2022-07-29T05:45:10;27.09;52.75
68867;SHT30;56451;44.804;20.476;2022-07-29T05:47:35;27.12;52.90
68867;SHT30;56451;44.804;20.476;2022-07-29T05:50:01;27.15;52.61
68867;SHT30;56451;44.804;20.476;2022-07-29T05:52:27;27.15;52.75
68867;SHT30;56451;44.804;20.476;2022-07-29T05:54:53;27.19;52.80
68867;SHT30;56451;44.804;20.476;2022-07-29T05:57:22;27.22;52.69
68867;SHT30;56451;44.804;20.476;2022-07-29T05:59:49;27.29;52.65
68867;SHT30;56451;44.804;20.476;2022-07-29T06:02:16;27.31;52.49
68867;SHT30;56451;44.804;20.476;2022-07-29T06:04:42;27.35;52.46
68867;SHT30;56451;44.804;20.476;2022-07-29T06:07:07;27.34;52.54
68867;SHT30;56451;44.804;20.476;2022-07-29T06:09:34;27.38;52.47
68867;SHT30;56451;44.804;20.476;2022-07-29T06:12:01;27.39;52.52
68867;SHT30;56451;44.804;20.476;2022-07-29T06:14:27;27.46;52.20
68867;SHT30;56451;44.804;20.476;2022-07-29T06:16:54;27.49;52.05
68867;SHT30;56451;44.804;20.476;2022-07-29T06:19:20;27.55;52.19
68867;SHT30;56451;44.804;20.476;2022-07-29T06:21:47;27.59;52.09
68867;SHT30;56451;44.804;20.476;2022-07-29T06:24:14;27.59;52.14
68867;SHT30;56451;44.804;20.476;2022-07-29T06:26:40;27.65;52.03
68867;SHT30;56451;44.804;20.476;2022-07-29T06:29:07;27.70;52.12
68867;SHT30;56451;44.804;20.476;2022-07-29T06:31:33;27.76;51.91
68867;SHT30;56451;44.804;20.476;2022-07-29T06:33:59;27.79;51.78
68867;SHT30;56451;44.804;20.476;2022-07-29T06:36:25;27.83;51.85
68867;SHT30;56451;44.804;20.476;2022-07-29T06:38:51;27.86;55.25
68867;SHT30;56451;44.804;20.476;2022-07-29T06:41:17;27.76;62.57
68867;SHT30;56451;44.804;20.476;2022-07-29T06:43:44;27.53;60.75
68867;SHT30;56451;44.804;20.476;2022-07-29T06:46:14;27.29;58.23
68867;SHT30;56451;44.804;20.476;2022-07-29T06:48:41;27.15;58.12
68867;SHT30;56451;44.804;20.476;2022-07-29T06:51:08;27.07;56.14
68867;SHT30;56451;44.804;20.476;2022-07-29T06:53:35;27.01;56.97
68867;SHT30;56451;44.804;20.476;2022-07-29T06:56:05;27.05;55.30
68867;SHT30;56451;44.804;20.476;2022-07-29T06:58:31;27.09;55.20
68867;SHT30;56451;44.804;20.476;2022-07-29T07:00:58;27.18;54.32
68867;SHT30;56451;44.804;20.476;2022-07-29T07:03:24;27.25;53.63
68867;SHT30;56451;44.804;20.476;2022-07-29T07:05:54;27.32;53.57
68867;SHT30;56451;44.804;20.476;2022-07-29T07:08:21;27.41;52.98
68867;SHT30;56451;44.804;20.476;2022-07-29T07:10:48;27.53;52.63
68867;SHT30;56451;44.804;20.476;2022-07-29T07:13:14;27.62;52.63
68867;SHT30;56451;44.804;20.476;2022-07-29T07:15:40;27.69;52.10
68867;SHT30;56451;44.804;20.476;2022-07-29T07:18:06;27.79;52.24
68867;SHT30;56451;44.804;20.476;2022-07-29T07:20:33;27.86;52.44
68867;SHT30;56451;44.804;20.476;2022-07-29T07:23:00;27.92;51.96
68867;SHT30;56451;44.804;20.476;2022-07-29T07:25:25;27.98;51.59
68867;SHT30;56451;44.804;20.476;2022-07-29T07:27:51;28.10;51.32
68867;SHT30;56451;44.804;20.476;2022-07-29T07:30:17;28.15;51.67
68867;SHT30;56451;44.804;20.476;2022-07-29T07:32:43;28.22;51.16
68867;SHT30;56451;44.804;20.476;2022-07-29T07:35:10;28.34;50.68
68867;SHT30;56451;44.804;20.476;2022-07-29T07:37:37;28.41;49.05
68867;SHT30;56451;44.804;20.476;2022-07-29T07:40:04;28.49;50.08
68867;SHT30;56451;44.804;20.476;2022-07-29T07:42:30;28.55;50.31
68867;SHT30;56451;44.804;20.476;2022-07-29T07:44:56;28.66;50.03
68867;SHT30;56451;44.804;20.476;2022-07-29T07:47:21;28.78;50.21
68867;SHT30;56451;44.804;20.476;2022-07-29T07:49:49;28.84;49.30
68867;SHT30;56451;44.804;20.476;2022-07-29T07:52:16;28.90;48.68
68867;SHT30;56451;44.804;20.476;2022-07-29T07:54:43;28.98;48.84
68867;SHT30;56451;44.804;20.476;2022-07-29T07:57:11;29.02;48.05
68867;SHT30;56451;44.804;20.476;2022-07-29T07:59:37;29.07;48.61
68867;SHT30;56451;44.804;20.476;2022-07-29T08:02:03;29.10;47.65
68867;SHT30;56451;44.804;20.476;2022-07-29T08:04:29;29.19;47.01
68867;SHT30;56451;44.804;20.476;2022-07-29T08:06:55;29.23;48.04
68867;SHT30;56451;44.804;20.476;2022-07-29T08:09:22;29.27;47.12
68867;SHT30;56451;44.804;20.476;2022-07-29T08:11:49;29.31;47.20
68867;SHT30;56451;44.804;20.476;2022-07-29T08:14:15;29.37;47.91
68867;SHT30;56451;44.804;20.476;2022-07-29T08:16:41;29.40;47.33
68867;SHT30;56451;44.804;20.476;2022-07-29T08:19:08;29.47;47.94
68867;SHT30;56451;44.804;20.476;2022-07-29T08:21:33;29.55;47.49
68867;SHT30;56451;44.804;20.476;2022-07-29T08:23:59;29.58;46.35
68867;SHT30;56451;44.804;20.476;2022-07-29T08:26:44;29.62;46.57
68867;SHT30;56451;44.804;20.476;2022-07-29T08:29:10;29.67;46.08
68867;SHT30;56451;44.804;20.476;2022-07-29T08:31:37;29.65;46.27
68867;SHT30;56451;44.804;20.476;2022-07-29T08:34:04;29.72;46.00
68867;SHT30;56451;44.804;20.476;2022-07-29T08:36:31;29.75;46.82
68867;SHT30;56451;44.804;20.476;2022-07-29T08:38:57;29.79;46.80
68867;SHT30;56451;44.804;20.476;2022-07-29T08:41:23;29.84;46.96
68867;SHT30;56451;44.804;20.476;2022-07-29T08:43:50;29.88;46.77
68867;SHT30;56451;44.804;20.476;2022-07-29T08:46:16;29.88;45.66
68867;SHT30;56451;44.804;20.476;2022-07-29T08:48:43;29.98;46.49
68867;SHT30;56451;44.804;20.476;2022-07-29T08:51:13;29.95;46.00
68867;SHT30;56451;44.804;20.476;2022-07-29T08:53:41;29.95;46.31
68867;SHT30;56451;44.804;20.476;2022-07-29T08:56:11;29.96;46.55
68867;SHT30;56451;44.804;20.476;2022-07-29T08:58:38;30.04;46.18
68867;SHT30;56451;44.804;20.476;2022-07-29T09:01:04;30.04;45.49
68867;SHT30;56451;44.804;20.476;2022-07-29T09:03:31;30.05;44.77
68867;SHT30;56451;44.804;20.476;2022-07-29T09:05:58;30.08;45.34
68867;SHT30;56451;44.804;20.476;2022-07-29T09:08:25;30.09;45.05
68867;SHT30;56451;44.804;20.476;2022-07-29T09:10:53;30.08;45.67
68867;SHT30;56451;44.804;20.476;2022-07-29T09:13:21;30.15;46.38
68867;SHT30;56451;44.804;20.476;2022-07-29T09:15:48;30.17;45.65
68867;SHT30;56451;44.804;20.476;2022-07-29T09:18:46;30.19;45.86
68867;SHT30;56451;44.804;20.476;2022-07-29T09:21:16;30.19;45.98
68867;SHT30;56451;44.804;20.476;2022-07-29T09:26:32;30.22;45.56
68867;SHT30;56451;44.804;20.476;2022-07-29T09:28:59;30.25;46.28
68867;SHT30;56451;44.804;20.476;2022-07-29T09:31:36;30.27;45.42
68867;SHT30;56451;44.804;20.476;2022-07-29T09:34:02;30.30;45.82
68867;SHT30;56451;44.804;20.476;2022-07-29T09:36:28;30.37;45.91
68867;SHT30;56451;44.804;20.476;2022-07-29T09:38:59;30.40;45.77
68867;SHT30;56451;44.804;20.476;2022-07-29T09:41:27;30.43;45.74
68867;SHT30;56451;44.804;20.476;2022-07-29T09:43:57;30.41;45.25
68867;SHT30;56451;44.804;20.476;2022-07-29T09:46:24;30.46;46.23
68867;SHT30;56451;44.804;20.476;2022-07-29T09:49:10;30.50;45.15
68867;SHT30;56451;44.804;20.476;2022-07-29T09:51:38;30.61;45.12
68867;SHT30;56451;44.804;20.476;2022-07-29T09:54:25;30.64;45.03
68867;SHT30;56451;44.804;20.476;2022-07-29T09:56:52;30.67;44.95
68867;SHT30;56451;44.804;20.476;2022-07-29T09:59:20;30.73;44.40
68867;SHT30;56451;44.804;20.476;2022-07-29T10:01:48;30.75;44.39
68867;SHT30;56451;44.804;20.476;2022-07-29T10:04:16;30.75;44.52
68867;SHT30;56451;44.804;20.476;2022-07-29T10:07:02;30.77;44.22
68867;SHT30;56451;44.804;20.476;2022-07-29T10:09:31;30.78;44.15
68867;SHT30;56451;44.804;20.476;2022-07-29T10:14:35;30.83;45.20
68867;SHT30;56451;44.804;20.476;2022-07-29T10:17:03;30.83;45.24
68867;SHT30;56451;44.804;20.476;2022-07-29T10:19:30;30.78;44.40
68867;SHT30;56451;44.804;20.476;2022-07-29T10:21:58;30.75;45.11
68867;SHT30;56451;44.804;20.476;2022-07-29T10:24:28;30.71;44.82
68867;SHT30;56451;44.804;20.476;2022-07-29T10:27:00;30.78;45.40
68867;SHT30;56451;44.804;20.476;2022-07-29T10:29:27;30.80;45.03
68867;SHT30;56451;44.804;20.476;2022-07-29T10:42:50;30.91;44.82
68867;SHT30;56451;44.804;20.476;2022-07-29T10:45:18;30.91;44.91
68867;SHT30;56451;44.804;20.476;2022-07-29T10:47:44;30.90;44.48
68867;SHT30;56451;44.804;20.476;2022-07-29T10:50:10;30.92;44.55
68867;SHT30;56451;44.804;20.476;2022-07-29T10:52:53;30.94;44.47
68867;SHT30;56451;44.804;20.476;2022-07-29T10:55:36;30.99;44.16
68867;SHT30;56451;44.804;20.476;2022-07-29T10:58:16;31.04;44.36
68867;SHT30;56451;44.804;20.476;2022-07-29T11:00:43;31.02;44.51
68867;SHT30;56451;44.804;20.476;2022-07-29T11:03:09;31.08;44.08
68867;SHT30;56451;44.804;20.476;2022-07-29T11:05:54;31.11;44.11
68867;SHT30;56451;44.804;20.476;2022-07-29T11:08:21;31.11;44.03
68867;SHT30;56451;44.804;20.476;2022-07-29T11:10:50;31.12;44.15
68867;SHT30;56451;44.804;20.476;2022-07-29T11:13:45;31.18;43.89
68867;SHT30;56451;44.804;20.476;2022-07-29T11:16:17;31.18;44.03
68867;SHT30;56451;44.804;20.476;2022-07-29T11:21:42;31.22;43.94
68867;SHT30;56451;44.804;20.476;2022-07-29T11:24:28;31.26;43.89
68867;SHT30;56451;44.804;20.476;2022-07-29T11:27:09;31.32;43.59
68867;SHT30;56451;44.804;20.476;2022-07-29T11:29:39;31.38;43.40
68867;SHT30;56451;44.804;20.476;2022-07-29T11:32:11;31.45;43.46
68867;SHT30;56451;44.804;20.476;2022-07-29T11:34:37;31.52;43.49
68867;SHT30;56451;44.804;20.476;2022-07-29T11:39:39;31.62;43.18
68867;SHT30;56451;44.804;20.476;2022-07-29T11:45:20;31.69;42.84
68867;SHT30;56451;44.804;20.476;2022-07-29T11:47:49;31.67;42.91
68867;SHT30;56451;44.804;20.476;2022-07-29T11:50:26;31.74;42.73
68867;SHT30;56451;44.804;20.476;2022-07-29T11:52:52;31.77;42.27
68867;SHT30;56451;44.804;20.476;2022-07-29T11:55:20;31.81;41.86
68867;SHT30;56451;44.804;20.476;2022-07-29T11:57:59;31.87;41.29
68867;SHT30;56451;44.804;20.476;2022-07-29T12:00:32;31.90;41.36
68867;SHT30;56451;44.804;20.476;2022-07-29T12:03:04;31.93;41.33
68867;SHT30;56451;44.804;20.476;2022-07-29T12:10:35;32.03;41.65
68867;SHT30;56451;44.804;20.476;2022-07-29T12:13:01;32.01;41.70
68867;SHT30;56451;44.804;20.476;2022-07-29T12:15:27;32.00;42.03
68867;SHT30;56451;44.804;20.476;2022-07-29T12:17:53;32.04;41.64
68867;SHT30;56451;44.804;20.476;2022-07-29T12:20:29;32.07;41.68
68867;SHT30;56451;44.804;20.476;2022-07-29T12:22:55;32.08;41.69
68867;SHT30;56451;44.804;20.476;2022-07-29T12:25:23;32.13;41.54
68867;SHT30;56451;44.804;20.476;2022-07-29T12:28:02;32.18;41.37
68867;SHT30;56451;44.804;20.476;2022-07-29T12:30:55;32.24;41.62
68867;SHT30;56451;44.804;20.476;2022-07-29T12:33:25;32.24;41.43
68867;SHT30;56451;44.804;20.476;2022-07-29T12:35:57;32.21;42.15
68867;SHT30;56451;44.804;20.476;2022-07-29T12:38:23;32.21;41.63
68867;SHT30;56451;44.804;20.476;2022-07-29T12:40:52;32.25;41.68
68867;SHT30;56451;44.804;20.476;2022-07-29T12:43:22;32.35;41.36
68867;SHT30;56451;44.804;20.476;2022-07-29T12:45:53;32.35;41.56
68867;SHT30;56451;44.804;20.476;2022-07-29T12:48:39;32.41;41.49
68867;SHT30;56451;44.804;20.476;2022-07-29T12:51:06;32.45;41.53
68867;SHT30;56451;44.804;20.476;2022-07-29T12:53:33;32.52;41.18
68867;SHT30;56451;44.804;20.476;2022-07-29T12:55:59;32.55;41.18
68867;SHT30;56451;44.804;20.476;2022-07-29T12:58:33;32.58;41.10
68867;SHT30;56451;44.804;20.476;2022-07-29T13:01:14;32.61;41.10
68867;SHT30;56451;44.804;20.476;2022-07-29T13:03:53;32.61;40.64
68867;SHT30;56451;44.804;20.476;2022-07-29T13:09:20;32.56;39.61
68867;SHT30;56451;44.804;20.476;2022-07-29T13:11:52;32.55;40.25
68867;SHT30;56451;44.804;20.476;2022-07-29T13:14:41;32.48;40.23
68867;SHT30;56451;44.804;20.476;2022-07-29T13:17:14;32.44;39.92
68867;SHT30;56451;44.804;20.476;2022-07-29T13:19:51;32.45;39.99
68867;SHT30;56451;44.804;20.476;2022-07-29T13:22:21;32.44;39.66
68867;SHT30;56451;44.804;20.476;2022-07-29T13:24:58;32.45;39.98
68867;SHT30;56451;44.804;20.476;2022-07-29T13:27:28;32.47;39.85
68867;SHT30;56451;44.804;20.476;2022-07-29T13:29:56;32.49;39.84
68867;SHT30;56451;44.804;20.476;2022-07-29T13:32:24;32.51;39.52
68867;SHT30;56451;44.804;20.476;2022-07-29T13:34:51;32.45;40.21
68867;SHT30;56451;44.804;20.476;2022-07-29T13:37:17;32.47;40.33
68867;SHT30;56451;44.804;20.476;2022-07-29T13:39:43;32.48;40.30
68867;SHT30;56451;44.804;20.476;2022-07-29T13:42:09;32.49;40.12
68867;SHT30;56451;44.804;20.476;2022-07-29T13:44:35;32.47;40.50
68867;SHT30;56451;44.804;20.476;2022-07-29T13:47:02;32.48;40.38
68867;SHT30;56451;44.804;20.476;2022-07-29T13:49:27;32.54;39.86
68867;SHT30;56451;44.804;20.476;2022-07-29T13:51:53;32.62;39.38
68867;SHT30;56451;44.804;20.476;2022-07-29T13:54:19;32.72;39.78
68867;SHT30;56451;44.804;20.476;2022-07-29T13:56:45;32.75;39.63
68867;SHT30;56451;44.804;20.476;2022-07-29T13:59:11;32.86;38.97
68867;SHT30;56451;44.804;20.476;2022-07-29T14:01:37;32.96;38.49
68867;SHT30;56451;44.804;20.476;2022-07-29T14:04:04;33.06;38.25
68867;SHT30;56451;44.804;20.476;2022-07-29T14:06:30;33.24;38.43
68867;SHT30;56451;44.804;20.476;2022-07-29T14:08:55;33.24;38.74
68867;SHT30;56451;44.804;20.476;2022-07-29T14:11:21;33.29;38.80
68867;SHT30;56451;44.804;20.476;2022-07-29T14:13:47;33.27;38.80
68867;SHT30;56451;44.804;20.476;2022-07-29T14:16:18;33.29;39.00
68867;SHT30;56451;44.804;20.476;2022-07-29T14:18:44;33.35;38.77
68867;SHT30;56451;44.804;20.476;2022-07-29T14:21:10;33.46;38.54
68867;SHT30;56451;44.804;20.476;2022-07-29T14:23:36;33.50;38.32
68867;SHT30;56451;44.804;20.476;2022-07-29T14:26:02;33.57;38.37
68867;SHT30;56451;44.804;20.476;2022-07-29T14:28:28;33.64;38.42
68867;SHT30;56451;44.804;20.476;2022-07-29T14:30:53;33.67;38.29
68867;SHT30;56451;44.804;20.476;2022-07-29T14:33:19;33.74;38.04
68867;SHT30;56451;44.804;20.476;2022-07-29T14:35:45;33.78;37.66
68867;SHT30;56451;44.804;20.476;2022-07-29T14:38:11;33.91;37.48
68867;SHT30;56451;44.804;20.476;2022-07-29T14:40:37;33.92;37.51
68867;SHT30;56451;44.804;20.476;2022-07-29T14:43:03;33.90;37.30
68867;SHT30;56451;44.804;20.476;2022-07-29T14:45:29;33.91;37.23
68867;SHT30;56451;44.804;20.476;2022-07-29T14:47:55;33.91;37.07
68867;SHT30;56451;44.804;20.476;2022-07-29T14:50:21;33.97;36.87
68867;SHT30;56451;44.804;20.476;2022-07-29T14:52:47;33.98;37.09
68867;SHT30;56451;44.804;20.476;2022-07-29T14:55:12;34.05;36.76
68867;SHT30;56451;44.804;20.476;2022-07-29T14:57:38;34.11;36.68
68867;SHT30;56451;44.804;20.476;2022-07-29T15:00:05;34.16;36.40
68867;SHT30;56451;44.804;20.476;2022-07-29T15:02:33;34.26;36.59
68867;SHT30;56451;44.804;20.476;2022-07-29T15:04:59;34.29;36.83
68867;SHT30;56451;44.804;20.476;2022-07-29T15:07:27;34.38;36.59
68867;SHT30;56451;44.804;20.476;2022-07-29T15:09:53;34.40;36.69
68867;SHT30;56451;44.804;20.476;2022-07-29T15:12:19;34.39;36.09
68867;SHT30;56451;44.804;20.476;2022-07-29T15:14:44;34.38;36.25
68867;SHT30;56451;44.804;20.476;2022-07-29T15:17:10;34.42;36.61
68867;SHT30;56451;44.804;20.476;2022-07-29T15:19:36;34.40;36.41
68867;SHT30;56451;44.804;20.476;2022-07-29T15:22:02;34.45;36.64
68867;SHT30;56451;44.804;20.476;2022-07-29T15:24:30;34.39;36.54
68867;SHT30;56451;44.804;20.476;2022-07-29T15:26:56;34.39;36.57
68867;SHT30;56451;44.804;20.476;2022-07-29T15:29:22;34.42;36.34
68867;SHT30;56451;44.804;20.476;2022-07-29T15:31:48;34.40;36.48
68867;SHT30;56451;44.804;20.476;2022-07-29T15:34:14;34.43;36.22
68867;SHT30;56451;44.804;20.476;2022-07-29T15:36:40;34.46;36.35
68867;SHT30;56451;44.804;20.476;2022-07-29T15:39:06;34.45;36.15
68867;SHT30;56451;44.804;20.476;2022-07-29T15:41:33;34.50;36.60
68867;SHT30;56451;44.804;20.476;2022-07-29T15:43:59;34.59;36.06
68867;SHT30;56451;44.804;20.476;2022-07-29T15:46:25;34.63;36.18
68867;SHT30;56451;44.804;20.476;2022-07-29T15:49:09;34.60;36.22
68867;SHT30;56451;44.804;20.476;2022-07-29T15:51:35;34.56;36.61
68867;SHT30;56451;44.804;20.476;2022-07-29T15:54:03;34.50;36.26
68867;SHT30;56451;44.804;20.476;2022-07-29T15:56:29;34.50;36.36
68867;SHT30;56451;44.804;20.476;2022-07-29T15:58:55;34.47;36.44
68867;SHT30;56451;44.804;20.476;2022-07-29T16:01:22;34.50;36.78
68867;SHT30;56451;44.804;20.476;2022-07-29T16:03:48;34.60;36.12
68867;SHT30;56451;44.804;20.476;2022-07-29T16:06:14;34.64;35.95